sensor_id;sensor_type;location;lat;lon;timestamp;temperature;humidity
40932;DHT22;36257;46.052;12.540;2022-12-29T00:02:16;6.80;99.90
40932;DHT22;36257;46.052;12.540;2022-12-29T00:04:42;6.80;99.90
40932;DHT22;36257;46.052;12.540;2022-12-29T00:07:07;6.80;99.90
40932;DHT22;36257;46.052;12.540;2022-12-29T00:09:33;6.80;99.90
40932;DHT22;36257;46.052;12.540;2022-12-29T00:12:01;6.70;99.90
40932;DHT22;36257;46.052;12.540;2022-12-29T00:14:27;6.70;99.90
40932;DHT22;36257;46.052;12.540;2022-12-29T00:17:12;6.70;99.90
40932;DHT22;36257;46.052;12.540;2022-12-29T00:19:38;6.60;99.90
40932;DHT22;36257;46.052;12.540;2022-12-29T00:22:22;6.60;99.90
40932;DHT22;36257;46.052;12.540;2022-12-29T00:25:09;6.50;99.90
40932;DHT22;36257;46.052;12.540;2022-12-29T00:27:53;6.50;99.90
40932;DHT22;36257;46.052;12.540;2022-12-29T00:30:37;6.50;99.90
40932;DHT22;36257;46.052;12.540;2022-12-29T00:33:26;6.40;99.90
40932;DHT22;36257;46.052;12.540;2022-12-29T00:36:22;6.40;99.90
40932;DHT22;36257;46.052;12.540;2022-12-29T00:38:55;6.40;99.90
40932;DHT22;36257;46.052;12.540;2022-12-29T00:41:41;6.40;99.90
40932;DHT22;36257;46.052;12.540;2022-12-29T00:44:25;6.40;99.90
40932;DHT22;36257;46.052;12.540;2022-12-29T00:46:51;6.40;99.90
40932;DHT22;36257;46.052;12.540;2022-12-29T00:49:16;6.40;99.90
40932;DHT22;36257;46.052;12.540;2022-12-29T00:52:04;6.40;99.90
40932;DHT22;36257;46.052;12.540;2022-12-29T00:54:32;6.50;99.90
40932;DHT22;36257;46.052;12.540;2022-12-29T00:56:58;6.50;99.90
40932;DHT22;36257;46.052;12.540;2022-12-29T00:59:25;6.50;99.90
40932;DHT22;36257;46.052;12.540;2022-12-29T01:01:51;6.50;99.90
40932;DHT22;36257;46.052;12.540;2022-12-29T01:04:18;6.50;99.90
40932;DHT22;36257;46.052;12.540;2022-12-29T01:06:43;6.40;99.90
40932;DHT22;36257;46.052;12.540;2022-12-29T01:09:10;6.40;99.90
40932;DHT22;36257;46.052;12.540;2022-12-29T01:11:54;6.40;99.90
40932;DHT22;36257;46.052;12.540;2022-12-29T01:14:20;6.40;99.90
40932;DHT22;36257;46.052;12.540;2022-12-29T01:16:46;6.50;99.90
40932;DHT22;36257;46.052;12.540;2022-12-29T01:19:13;6.50;99.90
40932;DHT22;36257;46.052;12.540;2022-12-29T01:21:38;6.50;99.90
40932;DHT22;36257;46.052;12.540;2022-12-29T01:24:04;6.50;99.90
40932;DHT22;36257;46.052;12.540;2022-12-29T01:26:30;6.50;99.90
40932;DHT22;36257;46.052;12.540;2022-12-29T01:28:56;6.50;99.90
40932;DHT22;36257;46.052;12.540;2022-12-29T01:31:21;6.50;99.90
40932;DHT22;36257;46.052;12.540;2022-12-29T01:33:47;6.60;99.90
40932;DHT22;36257;46.052;12.540;2022-12-29T01:36:15;6.50;99.90
40932;DHT22;36257;46.052;12.540;2022-12-29T01:38:41;6.60;99.90
40932;DHT22;36257;46.052;12.540;2022-12-29T01:41:08;6.50;99.90
40932;DHT22;36257;46.052;12.540;2022-12-29T01:43:55;6.50;99.90
40932;DHT22;36257;46.052;12.540;2022-12-29T01:49:22;6.50;99.90
40932;DHT22;36257;46.052;12.540;2022-12-29T01:54:20;6.40;99.90
40932;DHT22;36257;46.052;12.540;2022-12-29T01:56:47;6.30;99.90
40932;DHT22;36257;46.052;12.540;2022-12-29T01:59:21;6.20;99.90
40932;DHT22;36257;46.052;12.540;2022-12-29T02:01:48;6.20;99.90
40932;DHT22;36257;46.052;12.540;2022-12-29T02:04:14;6.20;99.90
40932;DHT22;36257;46.052;12.540;2022-12-29T02:06:57;6.20;99.90
40932;DHT22;36257;46.052;12.540;2022-12-29T02:09:24;6.20;99.90
40932;DHT22;36257;46.052;12.540;2022-12-29T02:11:51;6.10;99.90
40932;DHT22;36257;46.052;12.540;2022-12-29T02:14:17;6.00;99.90
40932;DHT22;36257;46.052;12.540;2022-12-29T02:36:15;5.70;99.90
40932;DHT22;36257;46.052;12.540;2022-12-29T02:41:17;5.50;99.90
40932;DHT22;36257;46.052;12.540;2022-12-29T02:46:41;5.70;99.90
40932;DHT22;36257;46.052;12.540;2022-12-29T02:49:22;5.70;99.90
40932;DHT22;36257;46.052;12.540;2022-12-29T02:52:14;5.70;99.90
40932;DHT22;36257;46.052;12.540;2022-12-29T02:54:41;5.70;99.90
40932;DHT22;36257;46.052;12.540;2022-12-29T02:59:38;5.70;99.90
40932;DHT22;36257;46.052;12.540;2022-12-29T03:02:20;5.70;99.90
40932;DHT22;36257;46.052;12.540;2022-12-29T03:05:13;5.70;99.90
40932;DHT22;36257;46.052;12.540;2022-12-29T03:08:23;5.70;99.90
40932;DHT22;36257;46.052;12.540;2022-12-29T03:11:08;5.60;99.90
40932;DHT22;36257;46.052;12.540;2022-12-29T03:13:59;5.60;99.90
40932;DHT22;36257;46.052;12.540;2022-12-29T03:16:48;5.60;99.90
40932;DHT22;36257;46.052;12.540;2022-12-29T03:19:28;5.60;99.90
40932;DHT22;36257;46.052;12.540;2022-12-29T03:21:59;5.60;99.90
40932;DHT22;36257;46.052;12.540;2022-12-29T03:24:47;5.70;99.90
40932;DHT22;36257;46.052;12.540;2022-12-29T03:27:18;5.70;99.90
40932;DHT22;36257;46.052;12.540;2022-12-29T03:29:58;5.70;99.90
40932;DHT22;36257;46.052;12.540;2022-12-29T03:32:34;5.60;99.90
40932;DHT22;36257;46.052;12.540;2022-12-29T03:35:03;5.60;99.90
40932;DHT22;36257;46.052;12.540;2022-12-29T03:37:34;5.60;99.90
40932;DHT22;36257;46.052;12.540;2022-12-29T03:40:01;5.60;99.90
40932;DHT22;36257;46.052;12.540;2022-12-29T03:42:30;5.60;99.90
40932;DHT22;36257;46.052;12.540;2022-12-29T03:44:56;5.60;99.90
40932;DHT22;36257;46.052;12.540;2022-12-29T03:47:23;5.60;99.90
40932;DHT22;36257;46.052;12.540;2022-12-29T03:49:49;5.60;99.90
40932;DHT22;36257;46.052;12.540;2022-12-29T03:52:16;5.60;99.90
40932;DHT22;36257;46.052;12.540;2022-12-29T03:54:41;5.60;99.90
40932;DHT22;36257;46.052;12.540;2022-12-29T03:57:09;5.60;99.90
40932;DHT22;36257;46.052;12.540;2022-12-29T03:59:35;5.60;99.90
40932;DHT22;36257;46.052;12.540;2022-12-29T04:02:01;5.60;99.90
40932;DHT22;36257;46.052;12.540;2022-12-29T04:04:26;5.60;99.90
40932;DHT22;36257;46.052;12.540;2022-12-29T04:06:52;5.60;99.90
40932;DHT22;36257;46.052;12.540;2022-12-29T04:09:17;5.60;99.90
40932;DHT22;36257;46.052;12.540;2022-12-29T04:11:43;5.70;99.90
40932;DHT22;36257;46.052;12.540;2022-12-29T04:14:09;5.70;99.90
40932;DHT22;36257;46.052;12.540;2022-12-29T04:16:34;5.60;99.90
40932;DHT22;36257;46.052;12.540;2022-12-29T04:19:05;5.60;99.90
40932;DHT22;36257;46.052;12.540;2022-12-29T04:21:30;5.60;99.90
40932;DHT22;36257;46.052;12.540;2022-12-29T04:23:56;5.70;99.90
40932;DHT22;36257;46.052;12.540;2022-12-29T04:26:22;5.70;99.90
40932;DHT22;36257;46.052;12.540;2022-12-29T04:28:49;5.70;99.90
40932;DHT22;36257;46.052;12.540;2022-12-29T04:31:15;5.70;99.90
40932;DHT22;36257;46.052;12.540;2022-12-29T04:33:41;5.80;99.90
40932;DHT22;36257;46.052;12.540;2022-12-29T04:36:06;5.80;99.90
40932;DHT22;36257;46.052;12.540;2022-12-29T04:38:32;5.80;99.90
40932;DHT22;36257;46.052;12.540;2022-12-29T04:41:01;5.70;99.90
40932;DHT22;36257;46.052;12.540;2022-12-29T04:43:27;5.70;99.90
40932;DHT22;36257;46.052;12.540;2022-12-29T04:45:53;5.80;99.90
40932;DHT22;36257;46.052;12.540;2022-12-29T04:48:19;5.80;99.90
40932;DHT22;36257;46.052;12.540;2022-12-29T04:50:47;5.90;99.90
40932;DHT22;36257;46.052;12.540;2022-12-29T04:53:14;5.80;99.90
40932;DHT22;36257;46.052;12.540;2022-12-29T04:55:39;5.80;99.90
40932;DHT22;36257;46.052;12.540;2022-12-29T04:58:05;5.90;99.90
40932;DHT22;36257;46.052;12.540;2022-12-29T05:00:31;5.80;99.90
40932;DHT22;36257;46.052;12.540;2022-12-29T05:02:56;5.80;99.90
40932;DHT22;36257;46.052;12.540;2022-12-29T05:05:22;5.80;99.90
40932;DHT22;36257;46.052;12.540;2022-12-29T05:07:48;5.70;99.90
40932;DHT22;36257;46.052;12.540;2022-12-29T05:10:13;5.80;99.90
40932;DHT22;36257;46.052;12.540;2022-12-29T05:12:39;5.80;99.90
40932;DHT22;36257;46.052;12.540;2022-12-29T05:15:05;5.80;99.90
40932;DHT22;36257;46.052;12.540;2022-12-29T05:17:32;5.90;99.90
40932;DHT22;36257;46.052;12.540;2022-12-29T05:19:57;5.90;99.90
40932;DHT22;36257;46.052;12.540;2022-12-29T05:22:23;5.90;99.90
40932;DHT22;36257;46.052;12.540;2022-12-29T05:24:49;5.90;99.90
40932;DHT22;36257;46.052;12.540;2022-12-29T05:27:14;5.90;99.90
40932;DHT22;36257;46.052;12.540;2022-12-29T05:29:40;5.90;99.90
40932;DHT22;36257;46.052;12.540;2022-12-29T05:32:05;5.90;99.90
40932;DHT22;36257;46.052;12.540;2022-12-29T05:34:31;5.90;99.90
40932;DHT22;36257;46.052;12.540;2022-12-29T05:36:57;5.90;99.90
40932;DHT22;36257;46.052;12.540;2022-12-29T05:39:22;5.90;99.90
40932;DHT22;36257;46.052;12.540;2022-12-29T05:41:48;6.00;99.90
40932;DHT22;36257;46.052;12.540;2022-12-29T05:44:14;6.00;99.90
40932;DHT22;36257;46.052;12.540;2022-12-29T05:46:40;6.00;99.90
40932;DHT22;36257;46.052;12.540;2022-12-29T05:49:06;6.10;99.90
40932;DHT22;36257;46.052;12.540;2022-12-29T05:51:31;6.10;99.90
40932;DHT22;36257;46.052;12.540;2022-12-29T05:53:57;6.10;99.90
40932;DHT22;36257;46.052;12.540;2022-12-29T05:56:23;6.10;99.90
40932;DHT22;36257;46.052;12.540;2022-12-29T05:58:48;6.00;99.90
40932;DHT22;36257;46.052;12.540;2022-12-29T06:01:14;6.10;99.90
40932;DHT22;36257;46.052;12.540;2022-12-29T06:03:40;6.10;99.90
40932;DHT22;36257;46.052;12.540;2022-12-29T06:06:06;6.10;99.90
40932;DHT22;36257;46.052;12.540;2022-12-29T06:08:31;6.10;99.90
40932;DHT22;36257;46.052;12.540;2022-12-29T06:10:57;6.10;99.90
40932;DHT22;36257;46.052;12.540;2022-12-29T06:13:22;6.10;99.90
40932;DHT22;36257;46.052;12.540;2022-12-29T06:15:49;6.10;99.90
40932;DHT22;36257;46.052;12.540;2022-12-29T06:18:15;6.10;99.90
40932;DHT22;36257;46.052;12.540;2022-12-29T06:20:40;6.10;99.90
40932;DHT22;36257;46.052;12.540;2022-12-29T06:23:06;6.20;99.90
40932;DHT22;36257;46.052;12.540;2022-12-29T06:25:32;6.10;99.90
40932;DHT22;36257;46.052;12.540;2022-12-29T06:27:59;6.10;99.90
40932;DHT22;36257;46.052;12.540;2022-12-29T06:30:25;6.10;99.90
40932;DHT22;36257;46.052;12.540;2022-12-29T06:32:50;6.10;99.90
40932;DHT22;36257;46.052;12.540;2022-12-29T06:35:17;6.10;99.90
40932;DHT22;36257;46.052;12.540;2022-12-29T06:37:43;6.10;99.90
40932;DHT22;36257;46.052;12.540;2022-12-29T06:40:09;6.20;99.90
40932;DHT22;36257;46.052;12.540;2022-12-29T06:42:35;6.20;99.90
40932;DHT22;36257;46.052;12.540;2022-12-29T06:45:01;6.20;99.90
40932;DHT22;36257;46.052;12.540;2022-12-29T06:47:27;6.30;99.90
40932;DHT22;36257;46.052;12.540;2022-12-29T06:49:52;6.40;99.90
40932;DHT22;36257;46.052;12.540;2022-12-29T06:52:18;6.40;99.90
40932;DHT22;36257;46.052;12.540;2022-12-29T06:54:44;6.50;99.90
40932;DHT22;36257;46.052;12.540;2022-12-29T06:57:09;6.60;99.90
40932;DHT22;36257;46.052;12.540;2022-12-29T06:59:35;6.60;99.90
40932;DHT22;36257;46.052;12.540;2022-12-29T07:02:01;6.60;99.90
40932;DHT22;36257;46.052;12.540;2022-12-29T07:04:27;6.60;99.90
40932;DHT22;36257;46.052;12.540;2022-12-29T07:06:53;6.60;99.90
40932;DHT22;36257;46.052;12.540;2022-12-29T07:09:19;6.50;99.90
40932;DHT22;36257;46.052;12.540;2022-12-29T07:11:45;6.50;99.90
40932;DHT22;36257;46.052;12.540;2022-12-29T07:14:11;6.50;99.90
40932;DHT22;36257;46.052;12.540;2022-12-29T07:16:37;6.50;99.90
40932;DHT22;36257;46.052;12.540;2022-12-29T07:19:03;6.60;99.90
40932;DHT22;36257;46.052;12.540;2022-12-29T07:21:28;6.60;99.90
40932;DHT22;36257;46.052;12.540;2022-12-29T07:23:54;6.60;99.90
40932;DHT22;36257;46.052;12.540;2022-12-29T07:26:20;6.60;99.90
40932;DHT22;36257;46.052;12.540;2022-12-29T07:28:46;6.60;99.90
40932;DHT22;36257;46.052;12.540;2022-12-29T07:31:16;6.60;99.90
40932;DHT22;36257;46.052;12.540;2022-12-29T07:33:43;6.60;99.90
40932;DHT22;36257;46.052;12.540;2022-12-29T07:36:10;6.70;99.90
40932;DHT22;36257;46.052;12.540;2022-12-29T07:38:35;6.70;99.90
40932;DHT22;36257;46.052;12.540;2022-12-29T07:41:01;6.70;99.90
40932;DHT22;36257;46.052;12.540;2022-12-29T07:43:27;6.70;99.90
40932;DHT22;36257;46.052;12.540;2022-12-29T07:45:53;6.70;99.90
40932;DHT22;36257;46.052;12.540;2022-12-29T07:48:18;6.90;99.90
40932;DHT22;36257;46.052;12.540;2022-12-29T07:50:44;6.90;99.90
40932;DHT22;36257;46.052;12.540;2022-12-29T07:53:10;6.90;99.90
40932;DHT22;36257;46.052;12.540;2022-12-29T07:55:35;7.00;99.90
40932;DHT22;36257;46.052;12.540;2022-12-29T07:58:01;7.00;99.90
40932;DHT22;36257;46.052;12.540;2022-12-29T08:00:27;7.10;99.90
40932;DHT22;36257;46.052;12.540;2022-12-29T08:02:53;7.10;99.90
40932;DHT22;36257;46.052;12.540;2022-12-29T08:05:19;7.20;99.90
40932;DHT22;36257;46.052;12.540;2022-12-29T08:07:45;7.30;99.90
40932;DHT22;36257;46.052;12.540;2022-12-29T08:10:11;7.40;99.90
40932;DHT22;36257;46.052;12.540;2022-12-29T08:12:38;7.40;99.90
40932;DHT22;36257;46.052;12.540;2022-12-29T08:15:05;7.50;99.90
40932;DHT22;36257;46.052;12.540;2022-12-29T08:17:31;7.50;99.90
40932;DHT22;36257;46.052;12.540;2022-12-29T08:19:56;7.50;99.90
40932;DHT22;36257;46.052;12.540;2022-12-29T08:22:23;7.60;99.90
40932;DHT22;36257;46.052;12.540;2022-12-29T08:24:49;7.60;99.90
40932;DHT22;36257;46.052;12.540;2022-12-29T08:27:15;7.60;99.90
40932;DHT22;36257;46.052;12.540;2022-12-29T08:29:40;7.70;99.90
40932;DHT22;36257;46.052;12.540;2022-12-29T08:32:06;7.70;99.90
40932;DHT22;36257;46.052;12.540;2022-12-29T08:34:32;7.70;99.90
40932;DHT22;36257;46.052;12.540;2022-12-29T08:36:58;7.80;99.90
40932;DHT22;36257;46.052;12.540;2022-12-29T08:39:23;7.80;99.90
40932;DHT22;36257;46.052;12.540;2022-12-29T08:41:49;7.90;99.90
40932;DHT22;36257;46.052;12.540;2022-12-29T08:44:15;7.90;99.90
40932;DHT22;36257;46.052;12.540;2022-12-29T08:46:41;8.00;99.90
40932;DHT22;36257;46.052;12.540;2022-12-29T08:49:06;8.00;99.90
40932;DHT22;36257;46.052;12.540;2022-12-29T08:51:32;8.10;99.90
40932;DHT22;36257;46.052;12.540;2022-12-29T08:53:59;8.20;99.90
40932;DHT22;36257;46.052;12.540;2022-12-29T08:56:24;8.30;99.90
40932;DHT22;36257;46.052;12.540;2022-12-29T08:58:51;8.40;99.90
40932;DHT22;36257;46.052;12.540;2022-12-29T09:01:17;8.60;99.00
40932;DHT22;36257;46.052;12.540;2022-12-29T09:03:42;8.60;98.40
40932;DHT22;36257;46.052;12.540;2022-12-29T09:06:08;8.60;98.10
40932;DHT22;36257;46.052;12.540;2022-12-29T09:08:34;8.60;98.30
40932;DHT22;36257;46.052;12.540;2022-12-29T09:11:19;8.60;98.00
40932;DHT22;36257;46.052;12.540;2022-12-29T09:13:45;8.70;97.60
40932;DHT22;36257;46.052;12.540;2022-12-29T09:16:12;8.70;97.50
40932;DHT22;36257;46.052;12.540;2022-12-29T09:18:39;8.60;97.80
40932;DHT22;36257;46.052;12.540;2022-12-29T09:21:06;8.70;97.50
40932;DHT22;36257;46.052;12.540;2022-12-29T09:23:32;8.60;97.40
40932;DHT22;36257;46.052;12.540;2022-12-29T09:25:58;8.60;98.30
40932;DHT22;36257;46.052;12.540;2022-12-29T09:28:24;8.60;98.40
40932;DHT22;36257;46.052;12.540;2022-12-29T09:30:50;8.70;98.40
40932;DHT22;36257;46.052;12.540;2022-12-29T09:33:16;8.70;98.40
40932;DHT22;36257;46.052;12.540;2022-12-29T09:35:43;8.70;98.40
40932;DHT22;36257;46.052;12.540;2022-12-29T09:38:09;8.80;98.50
40932;DHT22;36257;46.052;12.540;2022-12-29T09:40:35;8.80;98.00
40932;DHT22;36257;46.052;12.540;2022-12-29T09:48:38;9.00;96.70
40932;DHT22;36257;46.052;12.540;2022-12-29T09:51:10;9.10;96.50
40932;DHT22;36257;46.052;12.540;2022-12-29T09:53:41;9.30;95.30
40932;DHT22;36257;46.052;12.540;2022-12-29T09:56:15;9.40;94.80
40932;DHT22;36257;46.052;12.540;2022-12-29T09:58:51;9.50;94.30
40932;DHT22;36257;46.052;12.540;2022-12-29T10:01:41;9.50;94.20
40932;DHT22;36257;46.052;12.540;2022-12-29T10:04:07;9.30;94.20
40932;DHT22;36257;46.052;12.540;2022-12-29T10:06:39;9.30;94.40
40932;DHT22;36257;46.052;12.540;2022-12-29T10:20:01;9.50;93.60
40932;DHT22;36257;46.052;12.540;2022-12-29T10:23:02;9.70;93.60
40932;DHT22;36257;46.052;12.540;2022-12-29T10:25:35;9.80;93.70
40932;DHT22;36257;46.052;12.540;2022-12-29T10:28:06;10.10;91.80
40932;DHT22;36257;46.052;12.540;2022-12-29T10:30:36;10.30;91.90
40932;DHT22;36257;46.052;12.540;2022-12-29T10:33:04;10.60;89.50
40932;DHT22;36257;46.052;12.540;2022-12-29T10:35:34;11.30;89.20
40932;DHT22;36257;46.052;12.540;2022-12-29T10:40:49;12.10;84.90
40932;DHT22;36257;46.052;12.540;2022-12-29T10:43:46;11.90;88.60
40932;DHT22;36257;46.052;12.540;2022-12-29T10:46:21;11.60;88.60
40932;DHT22;36257;46.052;12.540;2022-12-29T10:48:48;11.30;88.90
40932;DHT22;36257;46.052;12.540;2022-12-29T10:51:29;10.90;89.50
40932;DHT22;36257;46.052;12.540;2022-12-29T10:53:59;10.70;90.00
40932;DHT22;36257;46.052;12.540;2022-12-29T10:56:38;10.40;91.00
40932;DHT22;36257;46.052;12.540;2022-12-29T10:59:22;10.30;91.60
40932;DHT22;36257;46.052;12.540;2022-12-29T11:07:25;10.40;93.00
40932;DHT22;36257;46.052;12.540;2022-12-29T11:09:52;10.50;92.70
40932;DHT22;36257;46.052;12.540;2022-12-29T11:15:21;10.40;92.70
40932;DHT22;36257;46.052;12.540;2022-12-29T11:17:51;10.40;92.10
40932;DHT22;36257;46.052;12.540;2022-12-29T11:20:38;10.40;93.40
40932;DHT22;36257;46.052;12.540;2022-12-29T11:23:20;10.70;91.80
40932;DHT22;36257;46.052;12.540;2022-12-29T11:26:20;10.90;91.30
40932;DHT22;36257;46.052;12.540;2022-12-29T11:29:15;10.90;90.00
40932;DHT22;36257;46.052;12.540;2022-12-29T11:31:43;10.90;89.80
40932;DHT22;36257;46.052;12.540;2022-12-29T11:34:16;10.80;89.80
40932;DHT22;36257;46.052;12.540;2022-12-29T11:36:42;11.00;89.90
40932;DHT22;36257;46.052;12.540;2022-12-29T11:39:33;11.20;88.40
40932;DHT22;36257;46.052;12.540;2022-12-29T11:42:00;11.10;88.50
40932;DHT22;36257;46.052;12.540;2022-12-29T11:44:36;11.00;89.60
40932;DHT22;36257;46.052;12.540;2022-12-29T11:47:04;11.00;89.20
40932;DHT22;36257;46.052;12.540;2022-12-29T11:49:30;11.30;89.30
40932;DHT22;36257;46.052;12.540;2022-12-29T11:51:56;11.70;88.70
40932;DHT22;36257;46.052;12.540;2022-12-29T11:54:32;12.30;87.40
40932;DHT22;36257;46.052;12.540;2022-12-29T11:57:15;13.00;84.60
40932;DHT22;36257;46.052;12.540;2022-12-29T11:59:43;13.70;83.90
40932;DHT22;36257;46.052;12.540;2022-12-29T12:04:49;14.30;79.80
40932;DHT22;36257;46.052;12.540;2022-12-29T12:07:42;14.30;78.30
40932;DHT22;36257;46.052;12.540;2022-12-29T12:11:11;14.50;79.40
40932;DHT22;36257;46.052;12.540;2022-12-29T12:15:57;14.40;78.70
40932;DHT22;36257;46.052;12.540;2022-12-29T12:21:18;14.10;79.40
40932;DHT22;36257;46.052;12.540;2022-12-29T12:29:59;13.30;79.70
40932;DHT22;36257;46.052;12.540;2022-12-29T12:32:11;13.20;81.30
40932;DHT22;36257;46.052;12.540;2022-12-29T12:34:42;13.10;81.70
40932;DHT22;36257;46.052;12.540;2022-12-29T12:45:49;13.00;84.10
40932;DHT22;36257;46.052;12.540;2022-12-29T12:56:59;12.80;83.70
40932;DHT22;36257;46.052;12.540;2022-12-29T13:10:22;12.00;85.70
40932;DHT22;36257;46.052;12.540;2022-12-29T13:27:15;12.30;84.40
40932;DHT22;36257;46.052;12.540;2022-12-29T13:35:20;11.90;85.20
40932;DHT22;36257;46.052;12.540;2022-12-29T13:38:01;11.70;87.50
40932;DHT22;36257;46.052;12.540;2022-12-29T13:40:32;11.70;87.60
40932;DHT22;36257;46.052;12.540;2022-12-29T13:43:00;11.60;87.60
40932;DHT22;36257;46.052;12.540;2022-12-29T13:45:30;11.60;87.20
40932;DHT22;36257;46.052;12.540;2022-12-29T13:50:25;11.30;87.70
40932;DHT22;36257;46.052;12.540;2022-12-29T13:55:28;11.10;88.80
40932;DHT22;36257;46.052;12.540;2022-12-29T13:58:13;11.10;89.20
40932;DHT22;36257;46.052;12.540;2022-12-29T14:06:15;11.30;88.20
40932;DHT22;36257;46.052;12.540;2022-12-29T14:08:42;11.30;89.20
40932;DHT22;36257;46.052;12.540;2022-12-29T14:11:10;11.30;87.90
40932;DHT22;36257;46.052;12.540;2022-12-29T14:13:39;11.20;87.20
40932;DHT22;36257;46.052;12.540;2022-12-29T14:16:06;11.10;87.70
40932;DHT22;36257;46.052;12.540;2022-12-29T14:18:34;11.00;89.30
40932;DHT22;36257;46.052;12.540;2022-12-29T14:23:45;11.00;89.40
40932;DHT22;36257;46.052;12.540;2022-12-29T14:28:55;10.80;89.20
40932;DHT22;36257;46.052;12.540;2022-12-29T14:36:57;10.90;90.40
40932;DHT22;36257;46.052;12.540;2022-12-29T14:44:52;10.90;91.80
40932;DHT22;36257;46.052;12.540;2022-12-29T14:47:49;10.80;92.10
40932;DHT22;36257;46.052;12.540;2022-12-29T14:50:26;10.80;92.10
40932;DHT22;36257;46.052;12.540;2022-12-29T14:53:01;10.80;91.80
40932;DHT22;36257;46.052;12.540;2022-12-29T14:58:02;10.80;91.50
40932;DHT22;36257;46.052;12.540;2022-12-29T15:00:34;10.80;91.50
40932;DHT22;36257;46.052;12.540;2022-12-29T15:05:55;10.70;91.50
40932;DHT22;36257;46.052;12.540;2022-12-29T15:08:31;10.70;91.70
40932;DHT22;36257;46.052;12.540;2022-12-29T15:11:10;10.60;91.70
40932;DHT22;36257;46.052;12.540;2022-12-29T15:13:40;10.50;91.60
40932;DHT22;36257;46.052;12.540;2022-12-29T15:16:41;10.40;91.90
40932;DHT22;36257;46.052;12.540;2022-12-29T15:19:21;10.40;92.40
40932;DHT22;36257;46.052;12.540;2022-12-29T15:21:47;10.40;92.80
40932;DHT22;36257;46.052;12.540;2022-12-29T15:24:14;10.40;92.90
40932;DHT22;36257;46.052;12.540;2022-12-29T15:26:45;10.30;93.20
40932;DHT22;36257;46.052;12.540;2022-12-29T15:29:39;10.20;93.80
40932;DHT22;36257;46.052;12.540;2022-12-29T15:32:25;10.20;93.90
40932;DHT22;36257;46.052;12.540;2022-12-29T15:34:56;10.10;94.10
40932;DHT22;36257;46.052;12.540;2022-12-29T15:37:26;10.00;94.40
40932;DHT22;36257;46.052;12.540;2022-12-29T15:39:53;9.90;94.90
40932;DHT22;36257;46.052;12.540;2022-12-29T15:45:14;9.90;95.10
40932;DHT22;36257;46.052;12.540;2022-12-29T15:47:43;9.90;95.20
40932;DHT22;36257;46.052;12.540;2022-12-29T15:50:22;10.00;94.90
40932;DHT22;36257;46.052;12.540;2022-12-29T15:52:49;10.00;94.40
40932;DHT22;36257;46.052;12.540;2022-12-29T15:55:28;10.00;94.60
40932;DHT22;36257;46.052;12.540;2022-12-29T15:58:00;10.00;94.60
40932;DHT22;36257;46.052;12.540;2022-12-29T16:00:32;9.90;94.90
40932;DHT22;36257;46.052;12.540;2022-12-29T16:03:01;9.90;95.00
40932;DHT22;36257;46.052;12.540;2022-12-29T16:05:38;9.80;95.10
40932;DHT22;36257;46.052;12.540;2022-12-29T16:10:56;9.70;95.50
40932;DHT22;36257;46.052;12.540;2022-12-29T16:13:32;9.50;96.20
40932;DHT22;36257;46.052;12.540;2022-12-29T16:16:11;9.30;97.20
40932;DHT22;36257;46.052;12.540;2022-12-29T16:18:39;9.20;97.50
40932;DHT22;36257;46.052;12.540;2022-12-29T16:21:11;9.30;98.10
40932;DHT22;36257;46.052;12.540;2022-12-29T16:23:45;9.30;97.70
40932;DHT22;36257;46.052;12.540;2022-12-29T16:26:20;9.50;97.60
40932;DHT22;36257;46.052;12.540;2022-12-29T16:28:50;9.50;97.50
40932;DHT22;36257;46.052;12.540;2022-12-29T16:31:25;9.40;97.80
40932;DHT22;36257;46.052;12.540;2022-12-29T16:33:57;9.50;97.70
40932;DHT22;36257;46.052;12.540;2022-12-29T16:36:29;9.50;97.50
40932;DHT22;36257;46.052;12.540;2022-12-29T16:41:43;9.70;96.90
40932;DHT22;36257;46.052;12.540;2022-12-29T16:44:20;9.70;96.80
40932;DHT22;36257;46.052;12.540;2022-12-29T16:47:03;9.60;97.10
40932;DHT22;36257;46.052;12.540;2022-12-29T16:49:30;9.50;97.20
40932;DHT22;36257;46.052;12.540;2022-12-29T16:51:56;9.40;97.30
40932;DHT22;36257;46.052;12.540;2022-12-29T16:54:35;9.40;97.60
40932;DHT22;36257;46.052;12.540;2022-12-29T16:57:02;9.50;97.30
40932;DHT22;36257;46.052;12.540;2022-12-29T16:59:35;9.60;96.80
40932;DHT22;36257;46.052;12.540;2022-12-29T17:02:08;9.50;97.20
40932;DHT22;36257;46.052;12.540;2022-12-29T17:04:37;9.40;97.30
40932;DHT22;36257;46.052;12.540;2022-12-29T17:07:17;9.50;96.90
40932;DHT22;36257;46.052;12.540;2022-12-29T17:09:43;9.50;96.80
40932;DHT22;36257;46.052;12.540;2022-12-29T17:12:15;9.50;96.80
40932;DHT22;36257;46.052;12.540;2022-12-29T17:14:51;9.60;96.50
40932;DHT22;36257;46.052;12.540;2022-12-29T17:20:24;9.50;96.60
40932;DHT22;36257;46.052;12.540;2022-12-29T17:22:50;9.40;96.70
40932;DHT22;36257;46.052;12.540;2022-12-29T17:25:21;9.40;96.60
40932;DHT22;36257;46.052;12.540;2022-12-29T17:28:00;9.40;96.70
40932;DHT22;36257;46.052;12.540;2022-12-29T17:30:28;9.40;96.40
40932;DHT22;36257;46.052;12.540;2022-12-29T17:33:02;9.50;96.10
40932;DHT22;36257;46.052;12.540;2022-12-29T17:35:28;9.50;96.10
40932;DHT22;36257;46.052;12.540;2022-12-29T17:37:54;9.50;96.10
40932;DHT22;36257;46.052;12.540;2022-12-29T17:40:24;9.50;96.10
40932;DHT22;36257;46.052;12.540;2022-12-29T17:42:53;9.40;96.60
40932;DHT22;36257;46.052;12.540;2022-12-29T17:45:23;9.40;96.50
40932;DHT22;36257;46.052;12.540;2022-12-29T17:47:49;9.30;96.50
40932;DHT22;36257;46.052;12.540;2022-12-29T17:50:17;9.40;96.20
40932;DHT22;36257;46.052;12.540;2022-12-29T17:52:55;9.40;96.20
40932;DHT22;36257;46.052;12.540;2022-12-29T17:55:22;9.30;96.60
40932;DHT22;36257;46.052;12.540;2022-12-29T17:57:49;9.20;96.90
40932;DHT22;36257;46.052;12.540;2022-12-29T18:02:40;9.20;97.20
40932;DHT22;36257;46.052;12.540;2022-12-29T18:05:30;9.10;97.40
40932;DHT22;36257;46.052;12.540;2022-12-29T18:07:58;9.20;97.30
40932;DHT22;36257;46.052;12.540;2022-12-29T18:10:25;9.20;97.20
40932;DHT22;36257;46.052;12.540;2022-12-29T18:12:53;9.20;97.10
40932;DHT22;36257;46.052;12.540;2022-12-29T18:15:30;9.20;97.20
40932;DHT22;36257;46.052;12.540;2022-12-29T18:18:13;9.20;97.20
40932;DHT22;36257;46.052;12.540;2022-12-29T18:20:40;9.20;97.60
40932;DHT22;36257;46.052;12.540;2022-12-29T18:25:50;9.20;97.50
40932;DHT22;36257;46.052;12.540;2022-12-29T18:28:17;9.20;97.90
40932;DHT22;36257;46.052;12.540;2022-12-29T18:30:42;9.20;97.70
40932;DHT22;36257;46.052;12.540;2022-12-29T18:33:14;9.20;97.60
40932;DHT22;36257;46.052;12.540;2022-12-29T18:35:44;9.20;97.60
40932;DHT22;36257;46.052;12.540;2022-12-29T18:38:10;9.10;97.60
40932;DHT22;36257;46.052;12.540;2022-12-29T18:40:36;9.10;97.60